FRIANT DAM (MILLERTON) (MIL)

Elevation: 581' · SAN JOAQUIN R basin · Operator: US Bureau of Reclamation

Provisional data, subject to change.
Query executed Thursday at 16:13:19   clock

Select a sensor type for a plot of data.
Note: Reservoir Flows are daily averages.

Earlier

Date RES ELE    STORAGE    RES CHG    TOC STO    ABV TOC    OUTFLOW    INFLOW    EVAP    FNF    RIV REL    PPT INC    SPILL   
 FEET   AF   AF   AF   AF   CFS   CFS   CFS   CFS   CFS   INCHES   CFS  
03/26/2014 482.80 168694 25 506100 -337406 141 165 11 1048 141 0.11 0
03/27/2014 482.72 168493 -201 509000 -340507 141 45 5 750 141 0.00 0
03/28/2014 482.63 168266 -227 511900 -343634 141 36 9 647 141 0.00 0
03/29/2014 482.55 168065 -201 514700 -346635 141 52 12 774 141 0.27 0
03/30/2014 482.46 167838 -227 517600 -349762 141 37 10 945 141 0.00 0
03/31/2014 482.48 167889 51 520500 -352611 141 183 16 906 141 0.27 0
04/01/2014 482.40 167687 -202 520500 -352813 129 29 2 923 129 0.49 0
04/02/2014 482.47 167864 177 520500 -352636 120 220 11 989 120 0.00 0
04/03/2014 482.38 167637 -227 520500 -352863 127 21 8 661 127 0.00 0
04/04/2014 482.39 167662 25 520500 -352838 130 157 14 605 130 0.00 0
04/05/2014 482.30 167436 -226 520500 -353064 137 37 14 665 137 0.00 0
04/06/2014 482.21 167209 -227 520500 -353291 141 42 15 563 141 0.00 0
04/07/2014 482.08 166882 -327 520500 -353618 141 -9 15 1511 141 0.00 0
04/08/2014 482.09 166907 25 520500 -353593 141 177 23 1429 141 0.00 0
04/09/2014 481.93 166507 -400 520500 -353993 226 44 20 1503 141 0.00 0
04/10/2014 481.83 166257 -250 520500 -354243 261 158 23 1554 141 0.00 0
04/11/2014 481.64 165784 -473 520500 -354716 261 46 23 1794 141 0.00 0
04/12/2014 481.61 165709 -75 520500 -354791 216 197 19 1741 141 0.00 0
04/13/2014 481.92 166482 773 520500 -354018 156 565 19 2188 156 0.00 0
04/14/2014 482.57 168115 1633 520500 -352385 165 1012 24 2151 165 0.00 0
04/15/2014 483.01 169222 1107 520500 -351278 162 744 24 2114 162 0.00 0
04/16/2014 484.26 172401 3179 520500 -348099 257 1886 26 2097 168 0.00 0
04/17/2014 486.13 177220 4819 520500 -343280 309 2759 20 2128 178 0.00 0
04/18/2014 487.75 181463 4243 520500 -339037 314 2473 20 3385 178 0.00 0
04/19/2014 489.17 185231 3768 520500 -335269 238 2170 32 2893 179 0.00 0
04/20/2014 490.73 189433 4202 520500 -331067 179 2323 26 2646 179 0.00 0
04/21/2014 492.52 194334 4901 520500 -326166 182 2677 24 2515 182 0.00 0
04/22/2014 494.06 198609 4275 520500 -321891 174 2356 27 2396 174 0.00 0
04/23/2014 495.49 202634 4025 520500 -317866 274 2335 32 1765 167 0.00 0
04/24/2014 -- -- -- -- -- -- -- -- -- -- -- --

Later | Latest

Warning! This data is preliminary and subject to revision.

Download Data Now Download Data Now | Show MIL Map | Plot MIL Data | 1 Month MIL Data | Real-Time MIL Data | MIL Info